createdAt,value
2019-02-23T00:01:47.837Z,19.60
2019-02-23T00:04:17.323Z,18.23
2019-02-23T00:06:46.832Z,18.70
2019-02-23T00:09:16.404Z,18.93
2019-02-23T00:11:45.893Z,19.70
2019-02-23T00:14:15.390Z,17.83
2019-02-23T00:17:23.382Z,18.90
2019-02-23T00:19:52.885Z,17.77
2019-02-23T00:22:22.395Z,18.47
2019-02-23T00:25:11.225Z,18.93
2019-02-23T00:27:40.732Z,18.77
2019-02-23T00:30:10.387Z,19.90
2019-02-23T00:32:39.895Z,20.17
2019-02-23T00:35:09.404Z,19.60
2019-02-23T00:37:38.914Z,20.33
2019-02-23T00:40:08.889Z,21.87
2019-02-23T00:42:38.397Z,21.10
2019-02-23T00:45:27.254Z,20.00
2019-02-23T00:47:56.747Z,20.70
2019-02-23T00:50:26.239Z,19.80
2019-02-23T00:52:55.750Z,21.60
2019-02-23T00:55:44.601Z,23.37
2019-02-23T00:58:26.927Z,17.93
2019-02-23T01:00:57.100Z,19.42
2019-02-23T01:03:26.660Z,18.90
2019-02-23T01:05:56.164Z,19.63
2019-02-23T01:08:25.654Z,20.90
2019-02-23T01:11:14.523Z,19.57
2019-02-23T01:13:44.013Z,21.67
2019-02-23T01:16:13.537Z,20.70
2019-02-23T01:18:43.098Z,20.37
2019-02-23T01:21:13.255Z,21.62
2019-02-23T01:23:42.762Z,23.07
2019-02-23T01:26:12.294Z,22.77
2019-02-23T01:28:41.779Z,23.55
2019-02-23T01:31:11.298Z,22.50
2019-02-23T01:33:41.795Z,21.57
2019-02-23T01:36:30.650Z,21.47
2019-02-23T01:39:00.167Z,21.93
2019-02-23T01:41:49.013Z,22.73
2019-02-23T01:44:18.506Z,24.10
2019-02-23T01:46:49.259Z,21.67
2019-02-23T01:49:18.760Z,19.77
2019-02-23T01:51:48.261Z,20.05
2019-02-23T01:54:17.775Z,20.63
2019-02-23T01:57:06.648Z,20.43
2019-02-23T01:59:36.137Z,20.33
2019-02-23T02:02:05.791Z,19.93
2019-02-23T02:04:35.282Z,20.57
2019-02-23T02:07:06.088Z,20.12
2019-02-23T02:09:35.645Z,20.80
2019-02-23T02:12:06.715Z,19.63
2019-02-23T02:14:55.529Z,19.63
2019-02-23T02:17:25.039Z,20.60
2019-02-23T02:20:11.147Z,20.77
2019-02-23T02:22:37.769Z,20.57
2019-02-23T02:25:09.060Z,21.87
2019-02-23T02:27:38.566Z,19.57
2019-02-23T02:30:11.177Z,20.17
2019-02-23T02:32:40.680Z,21.63
2019-02-23T02:35:11.544Z,20.73
2019-02-23T02:37:41.121Z,21.03
2019-02-23T02:40:10.971Z,20.53
2019-02-23T02:42:40.488Z,19.43
2019-02-23T02:45:29.395Z,21.40
2019-02-23T02:47:58.906Z,23.50
2019-02-23T02:50:28.401Z,22.73
2019-02-23T02:52:57.909Z,23.30
2019-02-23T02:55:27.434Z,23.07
2019-02-23T02:57:56.938Z,22.73
2019-02-23T03:00:26.452Z,23.07
2019-02-23T03:02:55.983Z,23.10
2019-02-23T03:05:25.469Z,21.93
2019-02-23T03:07:54.988Z,23.50
2019-02-23T03:10:24.479Z,22.97
2019-02-23T03:12:54.001Z,25.70
2019-02-23T03:15:23.498Z,26.37
2019-02-23T03:17:53.010Z,24.97
2019-02-23T03:20:22.510Z,26.27
2019-02-23T03:22:52.026Z,29.53
2019-02-23T03:25:21.534Z,31.93
2019-02-23T03:27:51.113Z,33.73
2019-02-23T03:30:20.610Z,33.88
2019-02-23T03:32:50.120Z,33.97
2019-02-23T03:35:19.608Z,30.50
2019-02-23T03:37:49.126Z,31.10
2019-02-23T03:40:38.044Z,29.60
2019-02-23T03:43:07.577Z,26.30
2019-02-23T03:45:37.068Z,29.17
2019-02-23T03:48:06.584Z,30.57
2019-02-23T03:50:48.411Z,28.90
2019-02-23T03:56:28.746Z,32.15
2019-02-23T03:58:58.524Z,31.77
2019-02-23T04:01:28.019Z,33.43
2019-02-23T04:03:58.387Z,30.55
2019-02-23T04:06:27.929Z,30.40
2019-02-23T04:08:57.418Z,31.13
2019-02-23T04:11:26.923Z,31.13
2019-02-23T04:13:56.439Z,32.73
2019-02-23T04:16:26.736Z,33.42
2019-02-23T04:18:56.259Z,30.40
2019-02-23T04:21:25.760Z,32.33
2019-02-23T04:23:55.501Z,33.37
2019-02-23T04:26:25.167Z,34.83
2019-02-23T04:28:54.874Z,33.83
2019-02-23T04:31:24.361Z,32.60
2019-02-23T04:33:53.877Z,27.90
2019-02-23T04:36:23.363Z,26.67
2019-02-23T04:38:52.870Z,31.33
2019-02-23T04:41:23.104Z,27.35
2019-02-23T04:43:52.645Z,30.23
2019-02-23T04:46:22.134Z,29.67
2019-02-23T04:48:51.708Z,30.93
2019-02-23T04:51:40.494Z,30.20
2019-02-23T04:54:10.011Z,29.93
2019-02-23T04:56:39.505Z,27.60
2019-02-23T04:59:09.021Z,26.83
2019-02-23T05:01:39.397Z,25.72
2019-02-23T05:04:28.243Z,26.20
2019-02-23T05:06:57.739Z,24.80
2019-02-23T05:09:27.263Z,21.13
2019-02-23T05:11:56.764Z,24.13
2019-02-23T05:14:26.291Z,25.33
2019-02-23T05:16:55.801Z,25.45
2019-02-23T05:19:25.317Z,20.50
2019-02-23T05:22:14.189Z,20.73
2019-02-23T05:24:43.682Z,23.37
2019-02-23T05:27:14.456Z,26.57
2019-02-23T05:29:43.996Z,22.27
2019-02-23T05:32:13.488Z,24.00
2019-02-23T05:34:43.000Z,26.90
2019-02-23T05:37:12.521Z,27.13
2019-02-23T05:39:43.281Z,27.17
2019-02-23T05:42:12.775Z,31.57
2019-02-23T05:44:42.308Z,27.00
2019-02-23T05:47:24.615Z,26.67
2019-02-23T05:49:54.159Z,27.30
2019-02-23T05:52:23.649Z,26.27
2019-02-23T05:55:31.523Z,24.65
2019-02-23T05:58:01.048Z,24.17
2019-02-23T06:00:30.557Z,25.23
2019-02-23T06:03:00.051Z,24.17
2019-02-23T06:05:29.571Z,23.20
2019-02-23T06:07:59.100Z,22.17
2019-02-23T06:10:28.673Z,22.50
2019-02-23T06:13:18.367Z,22.90
2019-02-23T06:15:47.897Z,24.00
2019-02-23T06:18:37.568Z,21.62
2019-02-23T06:21:26.410Z,21.87
2019-02-23T06:24:08.895Z,18.83
2019-02-23T06:26:38.441Z,20.23
2019-02-23T06:29:07.951Z,18.47
2019-02-23T06:31:37.466Z,19.30
2019-02-23T06:34:26.318Z,18.43
2019-02-23T06:37:09.013Z,19.33
2019-02-23T06:39:39.597Z,18.65
2019-02-23T06:42:09.099Z,21.93
2019-02-23T06:45:16.973Z,20.80
2019-02-23T06:47:46.473Z,17.90
2019-02-23T06:50:35.357Z,17.98
2019-02-23T06:53:18.151Z,17.77
2019-02-23T06:55:47.945Z,18.63
2019-02-23T06:58:36.802Z,19.60
2019-02-23T07:01:25.667Z,15.83
2019-02-23T07:03:55.181Z,14.47
2019-02-23T07:06:44.047Z,13.80
2019-02-23T07:09:13.549Z,12.67
2019-02-23T07:12:02.375Z,12.87
2019-02-23T07:14:32.552Z,11.15
2019-02-23T07:17:02.040Z,11.13
2019-02-23T07:19:31.575Z,11.83
2019-02-23T07:22:01.055Z,11.13
2019-02-23T07:24:30.562Z,10.27
2019-02-23T07:27:00.175Z,11.53
2019-02-23T07:29:29.679Z,11.73
2019-02-23T07:31:59.173Z,14.23
2019-02-23T07:34:48.024Z,13.67
2019-02-23T07:37:17.515Z,14.40
2019-02-23T07:40:27.249Z,12.83
2019-02-23T07:42:56.736Z,11.87
2019-02-23T07:45:26.253Z,13.27
2019-02-23T07:48:34.121Z,12.43
2019-02-23T07:51:03.612Z,11.83
2019-02-23T07:53:33.153Z,10.33
2019-02-23T07:56:02.661Z,10.63
2019-02-23T07:58:51.496Z,10.37
2019-02-23T08:01:40.335Z,11.90
2019-02-23T08:04:09.862Z,9.10
2019-02-23T08:06:39.367Z,9.03
2019-02-23T08:09:09.663Z,10.97
2019-02-23T08:11:39.162Z,7.87
2019-02-23T08:14:08.668Z,8.90
2019-02-23T08:16:38.166Z,9.87
2019-02-23T08:19:07.686Z,8.10
2019-02-23T08:21:37.219Z,8.47
2019-02-23T08:24:06.701Z,10.13
2019-02-23T08:26:36.237Z,8.87
2019-02-23T08:29:05.739Z,8.73
2019-02-23T08:31:35.246Z,8.73
2019-02-23T08:34:24.075Z,8.03
2019-02-23T08:36:53.583Z,9.30
2019-02-23T08:39:42.456Z,9.35
2019-02-23T08:42:11.955Z,9.63
2019-02-23T08:44:41.525Z,10.07
2019-02-23T08:47:11.051Z,8.50
2019-02-23T08:49:40.540Z,11.73
2019-02-23T08:52:10.980Z,10.50
2019-02-23T08:54:40.468Z,8.30
2019-02-23T08:57:09.999Z,9.00
2019-02-23T08:59:39.477Z,8.33
2019-02-23T09:02:09.032Z,9.67
2019-02-23T09:04:38.527Z,9.10
2019-02-23T09:07:08.031Z,8.43
2019-02-23T09:09:37.515Z,8.70
2019-02-23T09:12:07.660Z,7.63
2019-02-23T09:14:37.167Z,8.03
2019-02-23T09:17:07.377Z,7.45
2019-02-23T09:19:36.885Z,7.87
2019-02-23T09:22:06.566Z,8.27
2019-02-23T09:24:36.137Z,7.73
2019-02-23T09:27:05.647Z,7.33
2019-02-23T09:29:35.525Z,7.67
2019-02-23T09:32:05.021Z,9.30
2019-02-23T09:34:34.524Z,8.47
2019-02-23T09:37:04.030Z,7.97
2019-02-23T09:39:33.516Z,7.97
2019-02-23T09:42:07.562Z,6.85
2019-02-23T09:44:35.066Z,7.77
2019-02-23T09:47:23.930Z,7.43
2019-02-23T09:50:06.165Z,7.33
2019-02-23T09:52:35.720Z,8.23
2019-02-23T09:55:36.860Z,8.70
2019-02-23T09:57:56.150Z,6.70
2019-02-23T10:00:25.635Z,8.47
2019-02-23T10:02:55.458Z,7.58
2019-02-23T10:05:24.937Z,7.83
2019-02-23T10:07:54.446Z,6.93
2019-02-23T10:10:23.931Z,7.97
2019-02-23T10:12:53.512Z,13.00
2019-02-23T10:15:23.716Z,8.05
2019-02-23T10:18:12.553Z,8.07
2019-02-23T10:20:42.032Z,8.30
2019-02-23T10:23:21.529Z,8.23
2019-02-23T10:25:42.769Z,7.60
2019-02-23T10:28:12.274Z,9.20
2019-02-23T10:30:41.749Z,8.23
2019-02-23T10:33:11.241Z,8.30
2019-02-23T10:35:41.638Z,7.75
2019-02-23T10:38:11.144Z,7.23
2019-02-23T10:40:40.631Z,7.37
2019-02-23T10:43:10.236Z,7.53
2019-02-23T10:45:39.757Z,8.47
2019-02-23T10:48:09.834Z,7.58
2019-02-23T10:50:39.382Z,7.27
2019-02-23T10:53:08.885Z,7.33
2019-02-23T10:55:38.372Z,6.47
2019-02-23T10:58:07.899Z,6.37
2019-02-23T11:00:38.188Z,6.00
2019-02-23T11:03:07.693Z,5.72
2019-02-23T11:05:37.172Z,6.70
2019-02-23T11:08:06.755Z,7.90
2019-02-23T11:10:36.237Z,7.93
2019-02-23T11:13:06.097Z,5.97
2019-02-23T11:15:35.649Z,5.60
2019-02-23T11:18:05.288Z,6.30
2019-02-23T11:20:34.848Z,6.37
2019-02-23T11:23:43.732Z,5.25
2019-02-23T11:26:27.206Z,6.90
2019-02-23T11:29:09.974Z,7.20
2019-02-23T11:31:39.529Z,5.63
2019-02-23T11:34:09.066Z,8.17
2019-02-23T11:36:38.556Z,5.33
2019-02-23T11:39:08.154Z,5.00
2019-02-23T11:41:37.636Z,4.77
2019-02-23T11:44:07.136Z,3.97
2019-02-23T11:46:36.653Z,5.08
2019-02-23T11:49:08.243Z,4.20
2019-02-23T11:51:37.439Z,5.10
2019-02-23T11:54:06.956Z,5.10
2019-02-23T11:56:36.458Z,6.23
2019-02-23T11:59:19.018Z,5.37
2019-02-23T12:01:48.574Z,5.20
2019-02-23T12:04:18.086Z,5.00
2019-02-23T12:06:47.570Z,5.30
2019-02-23T12:09:17.133Z,9.40
2019-02-23T12:12:05.993Z,5.23
2019-02-23T12:14:54.840Z,5.10
2019-02-23T12:17:24.444Z,5.23
2019-02-23T12:19:55.398Z,5.62
2019-02-23T12:22:24.989Z,7.07
2019-02-23T12:24:54.476Z,8.07
2019-02-23T12:27:23.994Z,5.30
2019-02-23T12:29:53.486Z,5.60
2019-02-23T12:32:23.001Z,7.00
2019-02-23T12:35:23.726Z,6.97
2019-02-23T12:38:12.623Z,6.47
2019-02-23T12:40:42.130Z,5.57
2019-02-23T12:46:12.448Z,6.57
2019-02-23T12:48:41.956Z,5.77
2019-02-23T12:51:11.480Z,5.77
2019-02-23T12:53:41.015Z,8.80
2019-02-23T12:56:10.528Z,6.07
2019-02-23T12:58:40.058Z,5.50
2019-02-23T13:01:09.577Z,7.50
2019-02-23T13:03:39.094Z,7.07
2019-02-23T13:06:08.585Z,6.07
2019-02-23T13:09:15.937Z,7.80
2019-02-23T13:11:52.968Z,6.30
2019-02-23T13:14:56.707Z,6.50
2019-02-23T13:18:05.302Z,6.63
2019-02-23T13:21:09.463Z,9.30
2019-02-23T13:24:09.230Z,6.08
2019-02-23T13:27:15.967Z,6.23
2019-02-23T13:30:04.150Z,6.33
2019-02-23T13:33:00.238Z,7.73
2019-02-23T13:36:07.249Z,6.77
2019-02-23T13:39:18.997Z,9.20
2019-02-23T13:42:05.715Z,7.23
2019-02-23T13:45:12.659Z,7.10
2019-02-23T13:47:46.817Z,6.77
2019-02-23T13:50:35.658Z,7.17
2019-02-23T13:53:12.858Z,6.40
2019-02-23T13:55:53.013Z,6.93
2019-02-23T13:58:29.729Z,7.93
2019-02-23T14:01:19.925Z,6.17
2019-02-23T14:04:10.605Z,5.83
2019-02-23T14:06:59.510Z,4.97
2019-02-23T14:09:39.615Z,4.80
2019-02-23T14:12:35.827Z,6.30
2019-02-23T14:15:32.205Z,5.27
2019-02-23T14:18:24.142Z,4.80
2019-02-23T14:21:19.056Z,4.60
2019-02-23T14:24:11.216Z,4.75
2019-02-23T14:27:08.353Z,4.60
2019-02-23T14:30:35.907Z,3.87
2019-02-23T14:33:24.785Z,3.47
2019-02-23T14:36:22.165Z,4.17
2019-02-23T14:38:58.889Z,3.87
2019-02-23T14:42:08.629Z,4.43
2019-02-23T14:44:48.356Z,3.17
2019-02-23T14:47:30.851Z,3.27
2019-02-23T14:50:36.654Z,3.87
2019-02-23T14:53:25.883Z,4.07
2019-02-23T14:56:23.382Z,4.23
2019-02-23T14:59:15.512Z,4.27
2019-02-23T15:01:55.214Z,4.43
2019-02-23T15:04:32.073Z,4.17
2019-02-23T15:07:23.237Z,5.07
2019-02-23T15:10:02.967Z,5.17
2019-02-23T15:12:45.593Z,4.90
2019-02-23T15:16:17.240Z,6.17
2019-02-23T15:19:42.366Z,8.10
2019-02-23T15:22:23.259Z,7.17
2019-02-23T15:25:31.939Z,6.23
2019-02-23T15:28:26.757Z,6.53
2019-02-23T15:31:26.192Z,7.70
2019-02-23T15:34:25.547Z,8.03
2019-02-23T15:37:05.423Z,7.67
2019-02-23T15:39:54.091Z,7.60
2019-02-23T15:42:41.280Z,7.50
2019-02-23T15:45:52.537Z,7.00
2019-02-23T15:48:51.865Z,6.43
2019-02-23T15:51:21.508Z,7.07
2019-02-23T15:53:51.057Z,7.13
2019-02-23T15:56:20.571Z,7.73
2019-02-23T15:59:09.394Z,6.13
2019-02-23T16:01:38.926Z,7.63
2019-02-23T16:04:09.030Z,6.87
2019-02-23T16:06:38.523Z,6.40
2019-02-23T16:09:08.082Z,6.73
2019-02-23T16:11:37.605Z,7.12
2019-02-23T16:14:07.126Z,5.90
2019-02-23T16:17:15.069Z,4.90
2019-02-23T16:19:44.620Z,6.67
2019-02-23T16:22:14.346Z,6.77
2019-02-23T16:24:43.848Z,6.73
2019-02-23T16:27:13.449Z,5.03
2019-02-23T16:29:42.950Z,5.30
2019-02-23T16:32:12.457Z,5.47
2019-02-23T16:34:41.937Z,4.33
2019-02-23T16:37:11.449Z,4.37
2019-02-23T16:39:40.931Z,5.03
2019-02-23T16:42:10.444Z,4.90
2019-02-23T16:44:39.927Z,5.83
2019-02-23T16:47:09.451Z,4.37
2019-02-23T16:49:38.917Z,7.23
2019-02-23T16:52:09.353Z,4.83
2019-02-23T16:54:39.500Z,6.83
2019-02-23T16:57:09.009Z,6.13
2019-02-23T16:59:38.495Z,6.70
2019-02-23T17:02:08.033Z,6.50
2019-02-23T17:04:37.542Z,7.92
2019-02-23T17:07:07.609Z,6.28
2019-02-23T17:09:37.109Z,8.23
2019-02-23T17:12:45.014Z,8.07
2019-02-23T17:15:33.829Z,7.00
2019-02-23T17:18:16.353Z,7.77
2019-02-23T17:20:45.832Z,5.70
2019-02-23T17:23:15.344Z,6.87
2019-02-23T17:25:44.854Z,6.07
2019-02-23T17:28:14.371Z,6.50
2019-02-23T17:30:43.872Z,8.17
2019-02-23T17:33:13.375Z,5.65
2019-02-23T17:36:02.310Z,5.93
2019-02-23T17:38:44.858Z,4.90
2019-02-23T17:41:14.433Z,5.17
2019-02-23T17:44:03.300Z,6.53
2019-02-23T17:46:52.123Z,7.40
2019-02-23T17:49:21.649Z,5.20
2019-02-23T17:51:51.134Z,7.30
2019-02-23T17:54:20.675Z,7.00
2019-02-23T17:56:50.154Z,5.27
2019-02-23T17:59:19.687Z,5.70
2019-02-23T18:01:49.201Z,6.37
2019-02-23T18:04:19.368Z,5.70
2019-02-23T18:06:48.841Z,5.60
2019-02-23T18:09:37.684Z,6.80
2019-02-23T18:12:07.195Z,5.50
2019-02-23T18:14:36.709Z,10.33
2019-02-23T18:17:06.233Z,9.83
2019-02-23T18:19:35.747Z,6.60
2019-02-23T18:22:05.328Z,5.42
2019-02-23T18:24:34.835Z,4.20
2019-02-23T18:27:04.320Z,4.63
2019-02-23T18:29:33.846Z,6.70
2019-02-23T18:32:03.364Z,6.07
2019-02-23T18:34:32.872Z,7.05
2019-02-23T18:37:02.367Z,11.87
2019-02-23T18:39:31.889Z,8.83
2019-02-23T18:42:20.741Z,5.60
2019-02-23T18:45:03.343Z,7.75
2019-02-23T18:47:32.827Z,6.30
2019-02-23T18:50:02.342Z,7.63
2019-02-23T18:52:31.838Z,5.53
2019-02-23T18:55:01.379Z,4.73
2019-02-23T18:57:30.888Z,6.17
2019-02-23T19:00:00.409Z,5.13
2019-02-23T19:02:30.526Z,5.35
2019-02-23T19:05:00.052Z,5.30
2019-02-23T19:07:29.551Z,4.27
2019-02-23T19:09:59.063Z,7.17
2019-02-23T19:12:28.550Z,4.22
2019-02-23T19:14:59.616Z,4.90
2019-02-23T19:17:42.341Z,7.43
2019-02-23T19:20:31.221Z,4.90
2019-02-23T19:23:13.384Z,7.77
2019-02-23T19:26:02.259Z,5.87
2019-02-23T19:28:31.789Z,5.90
2019-02-23T19:31:01.277Z,9.90
2019-02-23T19:33:30.797Z,13.67
2019-02-23T19:36:00.296Z,13.23
2019-02-23T19:38:29.819Z,16.93
2019-02-23T19:40:59.340Z,18.60
2019-02-23T19:43:28.892Z,10.07
2019-02-23T19:45:58.421Z,10.47
2019-02-23T19:48:27.953Z,10.35
2019-02-23T19:51:02.712Z,7.70
2019-02-23T19:53:32.247Z,9.00
2019-02-23T19:56:01.748Z,10.60
2019-02-23T19:58:31.338Z,9.37
2019-02-23T20:01:00.916Z,9.27
2019-02-23T20:03:30.434Z,9.13
2019-02-23T20:06:19.593Z,7.17
2019-02-23T20:09:08.448Z,8.10
2019-02-23T20:11:37.976Z,9.03
2019-02-23T20:14:07.499Z,10.20
2019-02-23T20:16:36.993Z,8.37
2019-02-23T20:19:06.516Z,8.90
2019-02-23T20:21:36.075Z,9.80
2019-02-23T20:24:05.604Z,11.13
2019-02-23T20:26:35.105Z,10.67
2019-02-23T20:29:04.630Z,9.40
2019-02-23T20:31:34.131Z,11.47
2019-02-23T20:34:23.028Z,8.27
2019-02-23T20:37:11.867Z,18.85
2019-02-23T20:39:41.908Z,22.13
2019-02-23T20:42:11.397Z,18.40
2019-02-23T20:44:41.277Z,16.17
2019-02-23T20:47:10.844Z,11.60
2019-02-23T20:49:40.380Z,16.63
2019-02-23T20:52:29.731Z,7.20
2019-02-23T20:55:12.156Z,7.60
2019-02-23T20:57:41.659Z,8.63
2019-02-23T21:00:14.257Z,9.63
2019-02-23T21:02:43.853Z,5.47
2019-02-23T21:05:14.697Z,6.53
2019-02-23T21:07:44.822Z,5.10
2019-02-23T21:10:14.486Z,6.17
2019-02-23T21:12:43.967Z,6.07
2019-02-23T21:15:13.619Z,6.60
2019-02-23T21:17:43.123Z,4.75
2019-02-23T21:20:13.089Z,5.50
2019-02-23T21:22:42.584Z,4.07
2019-02-23T21:25:12.175Z,5.73
2019-02-23T21:27:41.669Z,5.27
2019-02-23T21:30:12.144Z,4.80
2019-02-23T21:32:41.634Z,5.93
2019-02-23T21:35:11.159Z,4.67
2019-02-23T21:38:00.017Z,4.97
2019-02-23T21:40:29.554Z,4.47
2019-02-23T21:42:59.112Z,4.37
2019-02-23T21:45:28.660Z,6.13
2019-02-23T21:47:58.154Z,5.07
2019-02-23T21:50:27.688Z,4.00
2019-02-23T21:52:57.182Z,4.67
2019-02-23T21:55:46.051Z,3.97
2019-02-23T21:58:15.587Z,5.00
2019-02-23T22:01:04.432Z,3.40
2019-02-23T22:03:44.873Z,3.67
2019-02-23T22:06:14.612Z,5.37
2019-02-23T22:08:44.103Z,3.83
2019-02-23T22:11:13.647Z,4.80
2019-02-23T22:13:43.141Z,4.40
2019-02-23T22:16:12.644Z,4.37
2019-02-23T22:18:42.156Z,6.70
2019-02-23T22:21:11.675Z,4.83
2019-02-23T22:23:41.175Z,4.17
2019-02-23T22:26:10.713Z,4.42
2019-02-23T22:28:59.547Z,4.33
2019-02-23T22:31:29.068Z,4.17
2019-02-23T22:33:58.723Z,5.90
2019-02-23T22:36:28.285Z,5.37
2019-02-23T22:38:57.779Z,3.47
2019-02-23T22:41:27.321Z,5.30
2019-02-23T22:43:56.810Z,5.03
2019-02-23T22:46:26.325Z,4.57
2019-02-23T22:48:55.830Z,6.80
2019-02-23T22:51:44.775Z,6.50
2019-02-23T22:54:14.269Z,4.17
2019-02-23T22:56:43.770Z,3.77
2019-02-23T22:59:13.315Z,4.17
2019-02-23T23:01:42.855Z,4.20
2019-02-23T23:04:12.347Z,5.07
2019-02-23T23:06:41.885Z,4.17
2019-02-23T23:09:13.017Z,3.40
2019-02-23T23:12:01.872Z,4.90
2019-02-23T23:14:44.460Z,4.20
2019-02-23T23:17:14.005Z,3.47
2019-02-23T23:19:43.497Z,5.57
2019-02-23T23:22:13.013Z,4.43
2019-02-23T23:24:42.502Z,5.15
2019-02-23T23:27:12.058Z,5.10
2019-02-23T23:29:41.540Z,5.63
2019-02-23T23:32:11.058Z,4.93
2019-02-23T23:34:40.554Z,5.37
2019-02-23T23:37:10.098Z,5.00
2019-02-23T23:39:39.593Z,6.13
2019-02-23T23:42:10.347Z,3.93
2019-02-23T23:44:39.848Z,4.07
2019-02-23T23:47:09.365Z,5.00
2019-02-23T23:49:38.854Z,5.87
2019-02-23T23:52:08.565Z,4.67
2019-02-23T23:54:38.948Z,6.03
2019-02-23T23:57:08.499Z,4.83
2019-02-23T23:59:57.376Z,4.73
